createdAt,value
2023-01-11T00:02:29.701Z,100990.59
2023-01-11T00:05:58.757Z,100995.23
2023-01-11T00:09:26.082Z,100993.27
2023-01-11T00:12:53.269Z,100996.11
2023-01-11T00:16:20.158Z,100993.95
2023-01-11T00:19:47.329Z,100991.88
2023-01-11T00:23:14.606Z,100986.30
2023-01-11T00:26:41.597Z,100981.89
2023-01-11T00:30:10.440Z,100979.60
2023-01-11T00:33:37.375Z,100982.96
2023-01-11T00:37:04.579Z,100987.56
2023-01-11T00:40:31.474Z,100990.15
2023-01-11T00:44:15.966Z,100979.66
2023-01-11T00:47:58.291Z,100979.02
2023-01-11T00:51:25.888Z,100974.27
2023-01-11T00:54:52.975Z,100973.51
2023-01-11T00:58:20.007Z,100979.11
2023-01-11T01:01:47.115Z,100981.00
2023-01-11T01:05:14.696Z,100983.48
2023-01-11T01:08:41.692Z,100985.88
2023-01-11T01:12:10.245Z,100985.17
2023-01-11T01:15:37.326Z,100981.30
2023-01-11T01:19:05.025Z,100979.50
2023-01-11T01:22:32.158Z,100982.19
2023-01-11T01:25:59.063Z,100982.98
2023-01-11T01:29:26.880Z,100983.77
2023-01-11T01:32:53.793Z,100979.97
2023-01-11T01:36:20.801Z,100969.53
2023-01-11T01:39:47.839Z,100967.17
2023-01-11T01:43:16.471Z,100966.77
2023-01-11T01:46:43.330Z,100970.48
2023-01-11T01:50:15.603Z,100967.27
2023-01-11T01:53:46.707Z,100961.52
2023-01-11T01:57:20.388Z,100951.31
2023-01-11T02:00:48.565Z,100945.84
2023-01-11T02:04:20.685Z,100938.60
2023-01-11T02:07:49.147Z,100933.20
2023-01-11T02:11:31.052Z,100929.84
2023-01-11T02:15:00.716Z,100919.59
2023-01-11T02:18:27.843Z,100913.83
2023-01-11T02:22:14.815Z,100916.83
2023-01-11T02:26:12.914Z,100915.48
2023-01-11T02:29:53.743Z,100916.58
2023-01-11T02:33:26.797Z,100910.66
2023-01-11T02:37:10.023Z,100906.86
2023-01-11T02:40:49.108Z,100899.38
2023-01-11T02:44:38.886Z,100903.11
2023-01-11T02:48:15.908Z,100898.73
2023-01-11T02:51:48.300Z,100894.77
2023-01-11T02:55:17.909Z,100892.70
2023-01-11T02:58:48.151Z,100891.81
2023-01-11T03:02:17.002Z,100888.84
2023-01-11T03:05:53.294Z,100885.19
2023-01-11T03:09:29.725Z,100879.39
2023-01-11T03:13:07.720Z,100874.75
2023-01-11T03:16:45.043Z,100872.42
2023-01-11T03:20:19.493Z,100870.20
2023-01-11T03:23:56.647Z,100860.48
2023-01-11T03:27:33.125Z,100848.80
2023-01-11T03:31:07.072Z,100841.80
2023-01-11T03:34:36.973Z,100840.89
2023-01-11T03:38:07.379Z,100838.15
2023-01-11T03:41:38.566Z,100836.48
2023-01-11T03:45:07.176Z,100835.27
2023-01-11T03:48:40.315Z,100837.14
2023-01-11T03:52:10.234Z,100840.15
2023-01-11T03:55:42.914Z,100829.81
2023-01-11T03:59:10.074Z,100815.85
2023-01-11T04:02:41.200Z,100806.23
2023-01-11T04:06:11.122Z,100804.23
2023-01-11T04:09:38.333Z,100799.16
2023-01-11T04:13:05.871Z,100791.73
2023-01-11T04:16:32.860Z,100789.58
2023-01-11T04:20:00.241Z,100785.79
2023-01-11T04:23:27.287Z,100770.88
2023-01-11T04:26:54.355Z,100763.77
2023-01-11T04:30:21.932Z,100755.71
2023-01-11T04:33:48.902Z,100757.65
2023-01-11T04:37:15.765Z,100751.73
2023-01-11T04:40:42.665Z,100749.40
2023-01-11T04:44:09.984Z,100753.20
2023-01-11T04:47:37.032Z,100753.52
2023-01-11T04:51:04.038Z,100745.74
2023-01-11T04:54:30.857Z,100743.66
2023-01-11T04:57:58.058Z,100738.09
2023-01-11T05:01:25.069Z,100738.23
2023-01-11T05:04:51.968Z,100739.45
2023-01-11T05:08:18.899Z,100735.80
2023-01-11T05:11:46.169Z,100734.09
2023-01-11T05:15:14.096Z,100728.09
2023-01-11T05:18:42.444Z,100726.98
2023-01-11T05:22:10.129Z,100720.52
2023-01-11T05:25:36.995Z,100716.94
2023-01-11T05:29:06.551Z,100710.77
2023-01-11T05:32:31.936Z,100697.98
2023-01-11T05:36:03.123Z,100692.60
2023-01-11T05:39:30.024Z,100693.66
2023-01-11T05:42:56.938Z,100699.62
2023-01-11T05:46:24.512Z,100693.52
2023-01-11T05:49:51.403Z,100690.89
2023-01-11T05:53:18.436Z,100698.66
2023-01-11T05:56:45.459Z,100698.55
2023-01-11T06:00:14.931Z,100699.70
2023-01-11T06:03:42.107Z,100699.23
2023-01-11T06:07:09.994Z,100701.00
2023-01-11T06:10:36.998Z,100700.30
2023-01-11T06:14:04.322Z,100693.22
2023-01-11T06:17:31.176Z,100690.03
2023-01-11T06:20:58.549Z,100690.31
2023-01-11T06:24:26.064Z,100680.98
2023-01-11T06:27:53.873Z,100661.28
2023-01-11T06:31:21.197Z,100651.91
2023-01-11T06:34:48.701Z,100646.41
2023-01-11T06:38:19.007Z,100648.20
2023-01-11T06:41:46.084Z,100655.69
2023-01-11T06:45:14.611Z,100653.07
2023-01-11T06:48:41.684Z,100650.59
2023-01-11T06:52:08.679Z,100651.19
2023-01-11T06:55:35.947Z,100652.86
2023-01-11T06:59:02.808Z,100650.73
2023-01-11T07:02:30.055Z,100651.66
2023-01-11T07:05:58.217Z,100650.46
2023-01-11T07:09:25.312Z,100649.98
2023-01-11T07:12:53.493Z,100647.52
2023-01-11T07:16:20.417Z,100640.85
2023-01-11T07:19:47.737Z,100638.00
2023-01-11T07:23:14.695Z,100632.37
2023-01-11T07:26:43.483Z,100633.46
2023-01-11T07:30:12.601Z,100637.65
2023-01-11T07:33:39.451Z,100640.45
2023-01-11T07:37:06.589Z,100647.36
2023-01-11T07:40:36.376Z,100647.55
2023-01-11T07:44:03.216Z,100638.34
2023-01-11T07:47:30.483Z,100636.79
2023-01-11T07:50:57.498Z,100634.39
2023-01-11T07:54:25.174Z,100632.34
2023-01-11T07:57:52.160Z,100624.67
2023-01-11T08:01:19.371Z,100618.71
2023-01-11T08:04:46.465Z,100620.86
2023-01-11T08:08:13.548Z,100620.05
2023-01-11T08:11:58.445Z,100615.96
2023-01-11T08:15:25.500Z,100612.11
2023-01-11T08:18:52.570Z,100607.27
2023-01-11T08:22:19.543Z,100602.27
2023-01-11T08:25:46.597Z,100600.25
2023-01-11T08:29:13.560Z,100595.30
2023-01-11T08:32:40.700Z,100596.70
2023-01-11T08:36:10.931Z,100600.39
2023-01-11T08:39:37.822Z,100597.48
2023-01-11T08:43:04.736Z,100597.31
2023-01-11T08:46:34.140Z,100603.64
2023-01-11T08:50:01.228Z,100599.98
2023-01-11T08:53:28.545Z,100605.55
2023-01-11T08:56:56.047Z,100602.69
2023-01-11T09:00:24.255Z,100603.98
2023-01-11T09:03:51.146Z,100600.47
2023-01-11T09:07:18.051Z,100593.83
2023-01-11T09:10:45.087Z,100591.56
2023-01-11T09:14:12.145Z,100589.65
2023-01-11T09:17:39.132Z,100587.36
2023-01-11T09:21:06.391Z,100583.69
2023-01-11T09:24:33.759Z,100582.36
2023-01-11T09:28:01.259Z,100584.41
2023-01-11T09:31:28.242Z,100586.77
2023-01-11T09:34:58.150Z,100579.67
2023-01-11T09:38:29.611Z,100580.12
2023-01-11T09:42:17.997Z,100571.96
2023-01-11T09:45:46.992Z,100560.30
2023-01-11T09:49:20.328Z,100558.86
2023-01-11T09:52:52.738Z,100552.55
2023-01-11T09:56:27.863Z,100541.92
2023-01-11T10:00:05.031Z,100534.66
2023-01-11T10:03:48.915Z,100533.48
2023-01-11T10:07:42.929Z,100526.07
2023-01-11T10:18:29.453Z,100526.44
2023-01-11T10:23:08.657Z,100511.27
2023-01-11T10:26:41.465Z,100509.57
2023-01-11T10:30:41.833Z,100503.43
2023-01-11T10:34:37.024Z,100492.41
2023-01-11T10:38:30.711Z,100492.67
2023-01-11T10:42:09.609Z,100496.17
2023-01-11T10:45:43.496Z,100495.23
2023-01-11T10:49:32.979Z,100487.79
2023-01-11T10:53:07.567Z,100480.02
2023-01-11T10:57:02.536Z,100479.23
2023-01-11T11:00:40.341Z,100466.24
2023-01-11T11:04:21.904Z,100455.22
2023-01-11T11:07:53.956Z,100451.20
2023-01-11T11:11:27.955Z,100442.25
2023-01-11T11:15:02.108Z,100439.77
2023-01-11T11:18:29.706Z,100439.23
2023-01-11T11:21:56.735Z,100433.39
2023-01-11T11:25:29.599Z,100428.20
2023-01-11T11:29:06.460Z,100425.96
2023-01-11T11:32:37.352Z,100422.05
2023-01-11T11:36:07.388Z,100413.77
2023-01-11T11:39:34.741Z,100411.45
2023-01-11T11:43:21.857Z,100407.26
2023-01-11T11:47:01.088Z,100402.86
2023-01-11T11:50:44.130Z,100399.90
2023-01-11T11:54:23.275Z,100393.12
2023-01-11T11:57:50.373Z,100385.13
2023-01-11T12:01:30.894Z,100377.94
2023-01-11T12:04:59.700Z,100369.73
2023-01-11T12:08:28.669Z,100364.06
2023-01-11T12:11:55.850Z,100356.68
2023-01-11T12:15:27.295Z,100343.34
2023-01-11T12:18:54.305Z,100342.40
2023-01-11T12:22:22.849Z,100336.05
2023-01-11T12:26:13.908Z,100329.86
2023-01-11T12:30:13.434Z,100329.20
2023-01-11T12:33:46.958Z,100329.27
2023-01-11T12:37:25.631Z,100323.24
2023-01-11T12:41:08.614Z,100318.05
2023-01-11T12:44:52.550Z,100313.19
2023-01-11T12:48:37.573Z,100308.57
2023-01-11T12:52:29.245Z,100307.73
2023-01-11T12:56:11.725Z,100297.18
2023-01-11T12:59:56.476Z,100293.27
2023-01-11T13:03:51.672Z,100290.36
2023-01-11T13:07:34.687Z,100281.73
2023-01-11T13:11:12.299Z,100275.33
2023-01-11T13:14:54.128Z,100271.20
2023-01-11T13:18:29.901Z,100274.21
2023-01-11T13:21:59.213Z,100272.36
2023-01-11T13:25:30.179Z,100273.79
2023-01-11T13:29:02.622Z,100267.89
2023-01-11T13:32:32.730Z,100267.19
2023-01-11T13:36:15.080Z,100265.23
2023-01-11T13:39:53.043Z,100264.14
2023-01-11T13:43:28.288Z,100265.52
2023-01-11T13:47:05.978Z,100263.25
2023-01-11T13:50:39.490Z,100259.35
2023-01-11T13:54:12.640Z,100257.71
2023-01-11T13:57:48.078Z,100263.02
2023-01-11T14:01:18.605Z,100260.33
2023-01-11T14:04:52.456Z,100264.77
2023-01-11T14:08:31.301Z,100265.77
2023-01-11T14:12:06.622Z,100262.61
2023-01-11T14:15:39.183Z,100258.78
2023-01-11T14:19:13.788Z,100254.60
2023-01-11T14:22:49.446Z,100251.61
2023-01-11T14:26:44.321Z,100248.63
2023-01-11T14:30:24.082Z,100248.42
2023-01-11T14:34:08.041Z,100241.61
2023-01-11T14:38:13.858Z,100231.88
2023-01-11T14:42:31.208Z,100231.16
2023-01-11T14:46:17.061Z,100229.37
2023-01-11T14:49:59.585Z,100225.70
2023-01-11T14:53:31.858Z,100217.52
2023-01-11T14:56:59.477Z,100211.73
2023-01-11T15:01:00.625Z,100215.86
2023-01-11T15:04:27.848Z,100209.86
2023-01-11T15:08:08.830Z,100212.30
2023-01-11T15:11:39.040Z,100207.02
2023-01-11T15:15:15.587Z,100207.89
2023-01-11T15:18:48.408Z,100206.48
2023-01-11T15:22:27.432Z,100209.41
2023-01-11T15:26:03.677Z,100204.36
2023-01-11T15:29:32.860Z,100202.10
2023-01-11T15:33:45.696Z,100193.25
2023-01-11T15:37:43.030Z,100188.58
2023-01-11T15:41:38.164Z,100191.00
2023-01-11T15:46:03.214Z,100192.09
2023-01-11T15:49:59.749Z,100195.23
2023-01-11T15:53:53.418Z,100199.25
2023-01-11T15:58:00.233Z,100199.32
2023-01-11T16:01:29.483Z,100197.64
2023-01-11T16:05:01.632Z,100193.52
2023-01-11T16:08:36.837Z,100186.06
2023-01-11T16:12:22.461Z,100186.22
2023-01-11T16:16:02.908Z,100180.30
2023-01-11T16:19:33.502Z,100187.09
2023-01-11T16:23:03.967Z,100183.65
2023-01-11T16:26:31.056Z,100188.34
2023-01-11T16:29:58.679Z,100194.80
2023-01-11T16:33:27.428Z,100195.14
2023-01-11T16:36:54.347Z,100197.73
2023-01-11T16:40:27.087Z,100195.54
2023-01-11T16:44:00.155Z,100193.96
2023-01-11T16:47:27.214Z,100197.56
2023-01-11T16:51:03.767Z,100193.38
2023-01-11T16:54:34.282Z,100197.31
2023-01-11T16:58:04.026Z,100199.17
2023-01-11T17:01:29.395Z,100197.26
2023-01-11T17:04:56.555Z,100201.56
2023-01-11T17:08:32.428Z,100199.61
2023-01-11T17:11:59.492Z,100205.83
2023-01-11T17:15:35.182Z,100205.56
2023-01-11T17:19:08.119Z,100206.60
2023-01-11T17:22:38.011Z,100207.65
2023-01-11T17:26:03.432Z,100207.24
2023-01-11T17:29:33.532Z,100207.75
2023-01-11T17:33:03.088Z,100207.92
2023-01-11T17:36:30.689Z,100205.55
2023-01-11T17:39:59.026Z,100208.70
2023-01-11T17:43:45.219Z,100206.21
2023-01-11T17:47:14.348Z,100202.52
2023-01-11T17:50:48.695Z,100202.98
2023-01-11T17:54:23.378Z,100196.92
2023-01-11T17:58:14.109Z,100195.20
2023-01-11T18:01:46.126Z,100199.21
2023-01-11T18:05:19.310Z,100197.65
2023-01-11T18:08:51.624Z,100199.20
2023-01-11T18:12:22.541Z,100196.11
2023-01-11T18:15:50.006Z,100195.30
2023-01-11T18:19:32.689Z,100195.16
2023-01-11T18:23:05.263Z,100197.65
2023-01-11T18:26:33.542Z,100197.83
2023-01-11T18:30:06.314Z,100200.97
2023-01-11T18:33:35.277Z,100199.09
2023-01-11T18:37:03.354Z,100203.77
2023-01-11T18:40:30.962Z,100202.42
2023-01-11T18:43:58.375Z,100206.59
2023-01-11T18:47:28.518Z,100206.45
2023-01-11T18:50:56.115Z,100203.52
2023-01-11T18:54:23.011Z,100202.35
2023-01-11T18:57:50.447Z,100202.55
2023-01-11T19:01:18.085Z,100204.67
2023-01-11T19:04:45.573Z,100209.58
2023-01-11T19:08:12.567Z,100213.94
2023-01-11T19:11:39.443Z,100212.10
2023-01-11T19:15:07.246Z,100218.89
2023-01-11T19:18:35.361Z,100219.14
2023-01-11T19:22:02.612Z,100217.95
2023-01-11T19:25:30.200Z,100218.17
2023-01-11T19:28:57.290Z,100218.05
2023-01-11T19:32:28.692Z,100218.24
2023-01-11T19:35:56.286Z,100222.10
2023-01-11T19:39:23.436Z,100228.42
2023-01-11T19:42:52.446Z,100229.37
2023-01-11T19:46:31.048Z,100233.23
2023-01-11T19:50:01.100Z,100232.96
2023-01-11T19:53:29.976Z,100233.58
2023-01-11T19:56:56.887Z,100235.89
2023-01-11T20:00:24.418Z,100236.48
2023-01-11T20:03:51.941Z,100242.42
2023-01-11T20:07:19.765Z,100242.30
2023-01-11T20:10:47.622Z,100246.84
2023-01-11T20:14:15.209Z,100253.31
2023-01-11T20:17:42.291Z,100254.89
2023-01-11T20:21:10.757Z,100256.52
2023-01-11T20:24:37.769Z,100261.57
2023-01-11T20:28:05.300Z,100260.61
2023-01-11T20:31:35.461Z,100258.03
2023-01-11T20:35:03.146Z,100260.86
2023-01-11T20:38:31.135Z,100264.91
2023-01-11T20:41:58.196Z,100267.55
2023-01-11T20:45:30.595Z,100269.34
2023-01-11T20:48:58.080Z,100269.05
2023-01-11T20:52:25.271Z,100270.36
2023-01-11T20:55:52.794Z,100277.06
2023-01-11T20:59:21.318Z,100278.58
2023-01-11T21:02:51.370Z,100287.49
2023-01-11T21:06:18.970Z,100292.77
2023-01-11T21:09:46.841Z,100297.68
2023-01-11T21:13:14.357Z,100298.77
2023-01-11T21:16:44.277Z,100297.25
2023-01-11T21:20:13.903Z,100294.66
2023-01-11T21:23:41.255Z,100295.89
2023-01-11T21:27:08.870Z,100303.70
2023-01-11T21:30:36.495Z,100309.30
2023-01-11T21:34:04.541Z,100315.40
2023-01-11T21:37:34.559Z,100317.32
2023-01-11T21:41:08.539Z,100325.13
2023-01-11T21:44:36.337Z,100333.63
2023-01-11T21:48:03.862Z,100332.09
2023-01-11T21:51:31.375Z,100340.10
2023-01-11T21:54:58.454Z,100344.29
2023-01-11T21:58:25.657Z,100346.05
2023-01-11T22:01:52.716Z,100354.95
2023-01-11T22:05:19.803Z,100356.02
2023-01-11T22:08:47.385Z,100355.91
2023-01-11T22:12:14.296Z,100346.61
2023-01-11T22:15:41.549Z,100344.42
2023-01-11T22:19:09.377Z,100350.53
2023-01-11T22:22:36.529Z,100350.95
2023-01-11T22:26:07.496Z,100351.66
2023-01-11T22:29:34.331Z,100356.39
2023-01-11T22:33:02.134Z,100355.23
2023-01-11T22:36:30.407Z,100355.46
2023-01-11T22:40:00.765Z,100359.66
2023-01-11T22:43:28.608Z,100364.54
2023-01-11T22:46:55.567Z,100370.66
2023-01-11T22:50:22.623Z,100374.35
2023-01-11T22:53:50.806Z,100374.23
2023-01-11T22:57:17.813Z,100376.38
2023-01-11T23:00:44.879Z,100380.11
2023-01-11T23:04:15.110Z,100380.33
2023-01-11T23:07:44.334Z,100383.85
2023-01-11T23:11:15.017Z,100388.59
2023-01-11T23:14:41.897Z,100387.73
2023-01-11T23:18:09.137Z,100394.17
2023-01-11T23:21:36.903Z,100398.35
2023-01-11T23:25:04.212Z,100392.15
2023-01-11T23:28:33.059Z,100397.36
2023-01-11T23:32:00.467Z,100399.11
2023-01-11T23:35:27.474Z,100396.52
2023-01-11T23:38:54.319Z,100396.70
2023-01-11T23:42:27.236Z,100404.50
2023-01-11T23:46:14.449Z,100412.13
2023-01-11T23:49:43.233Z,100410.56
2023-01-11T23:53:10.397Z,100407.40
2023-01-11T23:56:37.951Z,100410.23
